Main page
METAR-TAF:

METAR-TAF

Airports :

Pipestone Municipal Airport

Pipestone, Minnesota, United States

latitude: 43-59N, longitude: 096-19W, elevation: 1735 ft

Current weather observation

The report was made 12 minutes ago, at 12:55 UTC
Wind 8 mph from the South
Temperature 25°F
Humidity 100%
Pressure 29.97 in. Hg
Visibility: 3 miles
Scattered clouds at a height of 100 ft
mist

METAR: KPQN 291255Z AUTO 17007KT 3SM BR SCT001 M04/M04 A2997 RMK AO2

Time: 07:07 (13:07 UTC)


TAF: missing

Weather observations and forecasts of more than 4000 airports (METAR and TAF reports).

The available stations are represented by yellow and red dots on the map.

Hover mouse over dot to see the name of the station.

Then click to see weather observations and forecasts.

To change the map : click on the green buttons with a black cross to zoom in, on the green button with a dash to zoom out, or on the green arrows for adjacent maps.


METAR-TAF: